Time;durP1;ratioP1;P1;durP2;ratioP2;P2;SDS_P1;SDS_P2;PMS_P1;PMS_P2;Temp;Humidity;BMP_temperature;BMP_pressure;BME280_temperature;BME280_humidity;BME280_pressure;Samples;Min_cycle;Max_cycle;Signal;HPM_P1;HPM_P2
2022/07/22 00:00:08;;;;;;;10.25;4.90;;;;;;;14.75;100.00;102010.31;5226701;28;20530;-69
2022/07/22 00:02:40;;;;;;;11.15;5.50;;;;;;;14.84;100.00;102015.84;5241523;28;20041;-69
2022/07/22 00:05:11;;;;;;;12.55;5.75;;;;;;;14.75;100.00;102011.16;5231445;28;20064;-69
2022/07/22 00:07:42;;;;;;;10.43;5.07;;;;;;;14.78;100.00;102008.22;5253880;28;20064;-69
2022/07/22 00:10:14;;;;;;;10.50;5.28;;;;;;;14.77;100.00;102002.97;5234804;28;20154;-69
2022/07/22 00:12:46;;;;;;;9.63;5.28;;;;;;;14.77;100.00;102000.28;5236451;28;20041;-69
2022/07/22 00:15:17;;;;;;;11.95;5.78;;;;;;;14.82;100.00;102003.47;5231851;28;20029;-69
2022/07/22 00:17:49;;;;;;;8.85;5.05;;;;;;;14.79;100.00;102001.03;5237494;28;21033;-69
2022/07/22 00:20:20;;;;;;;13.35;5.93;;;;;;;14.78;100.00;102000.16;5236404;28;20536;-69
2022/07/22 00:22:52;;;;;;;11.80;5.57;;;;;;;14.79;100.00;102003.72;5236131;28;20025;-69
2022/07/22 00:25:23;;;;;;;12.48;6.35;;;;;;;14.79;100.00;101998.34;5240210;28;20111;-69
2022/07/22 00:27:54;;;;;;;14.20;6.07;;;;;;;14.86;100.00;102002.25;5239734;28;20459;-69
2022/07/22 00:30:26;;;;;;;14.13;6.65;;;;;;;14.83;100.00;102005.19;5241657;28;20056;-69
2022/07/22 00:32:57;;;;;;;11.52;6.05;;;;;;;14.92;100.00;101999.13;5235837;28;20057;-69
2022/07/22 00:35:28;;;;;;;12.95;6.00;;;;;;;14.84;100.00;102001.53;5235986;28;20443;-70
2022/07/22 00:37:59;;;;;;;13.85;6.60;;;;;;;14.82;100.00;102007.03;5240106;28;20029;-69
2022/07/22 00:40:31;;;;;;;14.55;6.88;;;;;;;14.88;100.00;102001.19;5241575;28;20146;-69
2022/07/22 00:43:02;;;;;;;14.65;6.70;;;;;;;14.84;100.00;101997.03;5247122;28;20029;-69
2022/07/22 00:45:33;;;;;;;11.23;6.32;;;;;;;14.86;100.00;101999.56;5232746;28;20025;-69
2022/07/22 00:48:05;;;;;;;13.45;6.57;;;;;;;14.84;100.00;102001.53;5241398;28;20471;-69
2022/07/22 00:50:36;;;;;;;10.75;6.35;;;;;;;14.88;100.00;102003.88;5234924;28;20070;-69
2022/07/22 00:53:08;;;;;;;14.88;6.32;;;;;;;14.85;100.00;102000.56;5240294;28;20029;-69
2022/07/22 00:55:39;;;;;;;9.80;6.13;;;;;;;14.88;100.00;101985.06;5234215;28;20052;-69
2022/07/22 00:58:11;;;;;;;13.82;6.50;;;;;;;14.85;100.00;101993.34;5237769;28;20025;-69
2022/07/22 01:00:42;;;;;;;14.00;6.30;;;;;;;14.85;100.00;101989.81;5235476;28;20029;-69
2022/07/22 01:03:13;;;;;;;12.52;6.03;;;;;;;14.94;100.00;101983.75;5230978;28;20057;-69
2022/07/22 01:05:44;;;;;;;18.92;6.75;;;;;;;14.85;100.00;101987.97;5241814;28;20441;-69
2022/07/22 01:08:16;;;;;;;15.38;6.40;;;;;;;14.83;100.00;101989.06;5238975;28;20029;-69
2022/07/22 01:10:47;;;;;;;14.32;6.13;;;;;;;14.82;100.00;101987.34;5231375;28;21106;-69
2022/07/22 01:13:19;;;;;;;10.02;6.15;;;;;;;14.83;100.00;101983.69;5236027;28;20107;-69
2022/07/22 01:15:50;;;;;;;13.25;6.03;;;;;;;14.82;100.00;101985.53;5236338;28;20025;-69
2022/07/22 01:18:22;;;;;;;16.60;6.45;;;;;;;14.88;100.00;101981.50;5235252;28;20447;-69
2022/07/22 01:20:53;;;;;;;12.32;5.82;;;;;;;14.84;100.00;101982.72;5238790;28;20075;-69
2022/07/22 01:23:25;;;;;;;17.65;6.78;;;;;;;14.80;100.00;101978.56;5238939;28;20472;-69
2022/07/22 01:25:57;;;;;;;13.45;6.13;;;;;;;14.79;100.00;101974.16;5233554;28;20025;-69
2022/07/22 01:28:28;;;;;;;12.50;5.30;;;;;;;14.77;100.00;101979.66;5238806;28;20124;-69
2022/07/22 01:31:00;;;;;;;12.55;6.18;;;;;;;14.66;100.00;101972.41;5238165;28;20131;-69
2022/07/22 01:33:31;;;;;;;12.18;5.75;;;;;;;14.61;100.00;101971.91;5235748;28;20172;-69
2022/07/22 01:36:04;;;;;;;14.05;6.03;;;;;;;14.58;100.00;101977.50;5238437;28;20517;-69
2022/07/22 01:38:36;;;;;;;13.07;6.13;;;;;;;14.56;100.00;101976.72;5243710;28;20029;-69
2022/07/22 01:41:07;;;;;;;14.20;6.35;;;;;;;14.42;100.00;101977.78;5242193;28;20033;-69
2022/07/22 01:43:39;;;;;;;13.02;6.82;;;;;;;14.36;100.00;101983.56;5246410;28;20021;-69
2022/07/22 01:46:10;;;;;;;14.02;6.13;;;;;;;14.30;100.00;101976.88;5241923;28;20333;-69
2022/07/22 01:48:41;;;;;;;15.73;6.97;;;;;;;14.19;100.00;101975.91;5242406;28;20025;-69
2022/07/22 01:51:13;;;;;;;13.95;6.63;;;;;;;14.23;100.00;101977.41;5244190;28;20041;-69
2022/07/22 01:53:44;;;;;;;12.50;6.53;;;;;;;14.12;100.00;101983.56;5242924;28;20025;-69
2022/07/22 01:56:16;;;;;;;14.52;7.05;;;;;;;14.07;100.00;101986.56;5237291;28;20033;-69
2022/07/22 01:58:47;;;;;;;13.73;7.00;;;;;;;14.02;100.00;101985.22;5244457;28;20033;-69
2022/07/22 02:01:18;;;;;;;14.30;6.40;;;;;;;14.12;100.00;101987.13;5241848;28;20033;-69
2022/07/22 02:03:50;;;;;;;18.02;6.63;;;;;;;14.12;100.00;101989.78;5241092;28;20130;-69
2022/07/22 02:06:21;;;;;;;13.07;7.40;;;;;;;14.18;100.00;101975.06;5236477;28;20036;-69
2022/07/22 02:08:52;;;;;;;17.02;7.85;;;;;;;14.18;100.00;101976.91;5236319;28;20562;-71
2022/07/22 02:11:24;;;;;;;15.57;7.88;;;;;;;14.11;100.00;101976.47;5234595;28;20470;-69
2022/07/22 02:13:56;;;;;;;19.17;8.32;;;;;;;14.16;100.00;101970.78;5241202;28;20499;-69
2022/07/22 02:16:27;;;;;;;15.65;8.27;;;;;;;14.27;100.00;101966.34;5236674;28;20683;-69
2022/07/22 02:18:59;;;;;;;17.38;7.80;;;;;;;14.22;100.00;101971.19;5233566;28;20119;-69
2022/07/22 02:21:30;;;;;;;18.27;8.20;;;;;;;14.21;100.00;101969.50;5256901;28;20463;-68
2022/07/22 02:24:02;;;;;;;18.10;9.02;;;;;;;14.30;100.00;101968.81;5244743;28;20037;-68
2022/07/22 02:26:34;;;;;;;14.75;8.02;;;;;;;14.28;100.00;101970.72;5233375;28;20044;-68
2022/07/22 02:29:05;;;;;;;17.67;8.40;;;;;;;14.37;100.00;101969.19;5235492;28;20498;-68
2022/07/22 02:31:36;;;;;;;23.85;9.63;;;;;;;14.34;100.00;101971.25;5235000;28;20033;-68
2022/07/22 02:34:08;;;;;;;17.83;8.77;;;;;;;14.30;100.00;101971.50;5238621;28;20432;-68
2022/07/22 02:36:39;;;;;;;17.67;8.40;;;;;;;14.47;100.00;101969.34;5236423;28;20030;-68
2022/07/22 02:39:10;;;;;;;17.17;8.15;;;;;;;14.46;100.00;101967.66;5236781;28;20028;-68
2022/07/22 02:41:42;;;;;;;18.60;8.75;;;;;;;14.57;100.00;101975.78;5239820;28;20047;-68
2022/07/22 02:44:13;;;;;;;15.07;8.43;;;;;;;14.44;100.00;101969.56;5244535;28;20029;-68
2022/07/22 02:46:44;;;;;;;16.42;8.68;;;;;;;14.50;100.00;101970.00;5239718;28;20069;-69
2022/07/22 02:49:16;;;;;;;15.52;9.00;;;;;;;14.58;100.00;101961.38;5243055;28;20037;-68
2022/07/22 02:51:47;;;;;;;16.30;8.45;;;;;;;14.46;100.00;101959.59;5240961;28;20023;-68
2022/07/22 02:54:18;;;;;;;17.50;8.80;;;;;;;14.63;100.00;101963.72;5244236;28;21450;-68
2022/07/22 02:56:49;;;;;;;15.10;8.90;;;;;;;14.60;100.00;101955.91;5240449;28;20567;-68
2022/07/22 02:59:21;;;;;;;18.73;8.95;;;;;;;14.54;100.00;101957.19;5244644;28;20532;-68
2022/07/22 03:01:52;;;;;;;16.10;7.88;;;;;;;14.54;100.00;101954.50;5243502;28;20049;-68
2022/07/22 03:04:23;;;;;;;16.23;8.93;;;;;;;14.51;100.00;101960.09;5245817;28;20033;-68
2022/07/22 03:06:54;;;;;;;17.85;8.40;;;;;;;14.51;100.00;101949.34;5245660;28;20028;-69
2022/07/22 03:09:26;;;;;;;13.70;7.63;;;;;;;14.48;100.00;101945.06;5243386;28;20029;-69
2022/07/22 03:11:57;;;;;;;14.13;8.02;;;;;;;14.48;100.00;101944.22;5238719;28;20471;-69
2022/07/22 03:14:28;;;;;;;18.23;7.57;;;;;;;14.63;100.00;101945.78;5234802;28;20541;-69
2022/07/22 03:17:00;;;;;;;16.08;8.70;;;;;;;14.48;100.00;101944.22;5233768;28;20056;-69
2022/07/22 03:19:31;;;;;;;17.42;7.70;;;;;;;14.50;100.00;101943.13;5236541;28;20075;-68
2022/07/22 03:22:02;;;;;;;18.25;8.35;;;;;;;14.48;100.00;101944.22;5242027;28;20068;-68
2022/07/22 03:24:34;;;;;;;13.35;7.70;;;;;;;14.51;100.00;101944.81;5238684;28;20098;-68
2022/07/22 03:27:05;;;;;;;19.67;8.43;;;;;;;14.47;100.00;101948.72;5244405;28;20039;-68
2022/07/22 03:29:36;;;;;;;17.38;8.15;;;;;;;14.50;100.00;101943.13;5240875;28;20106;-68
2022/07/22 03:32:07;;;;;;;17.52;7.85;;;;;;;14.51;100.00;101946.66;5242690;28;20082;-68
2022/07/22 03:34:39;;;;;;;13.75;7.50;;;;;;;14.43;100.00;101951.78;5231264;28;20025;-68
2022/07/22 03:37:10;;;;;;;15.10;7.63;;;;;;;14.42;100.00;101936.63;5231384;28;20033;-68
2022/07/22 03:39:41;;;;;;;13.98;7.28;;;;;;;14.37;100.00;101938.81;5242179;28;20036;-69
2022/07/22 03:42:13;;;;;;;16.10;7.28;;;;;;;14.43;100.00;101939.19;5243322;28;20025;-69
2022/07/22 03:44:44;;;;;;;17.10;7.60;;;;;;;14.37;100.00;101946.88;5232195;28;20119;-69
2022/07/22 03:47:22;;;;;;;21.65;7.97;;;;;;;14.41;100.00;101951.03;5235632;28;20039;-69
2022/07/22 03:49:53;;;;;;;14.25;7.57;;;;;;;14.40;100.00;101946.63;5239801;28;20061;-68
2022/07/22 03:52:25;;;;;;;15.98;8.02;;;;;;;14.41;100.00;101951.88;5240328;28;20178;-68
2022/07/22 03:54:56;;;;;;;14.40;7.68;;;;;;;14.47;100.00;101959.47;5240245;28;20063;-68
2022/07/22 03:57:29;;;;;;;14.13;7.63;;;;;;;14.56;100.00;101955.25;5241969;28;20041;-68
2022/07/22 04:00:00;;;;;;;15.25;7.63;;;;;;;14.57;100.00;101953.44;5240749;28;20040;-68
2022/07/22 04:02:31;;;;;;;16.10;7.60;;;;;;;14.58;100.00;101960.53;5244066;28;20042;-68
2022/07/22 04:05:03;;;;;;;14.90;8.10;;;;;;;14.66;100.00;101958.13;5245052;28;21500;-68
2022/07/22 04:07:34;;;;;;;16.50;8.15;;;;;;;14.55;100.00;101956.19;5238226;28;20029;-68
2022/07/22 04:10:06;;;;;;;16.10;8.45;;;;;;;14.59;100.00;101960.41;5239804;28;20451;-68
2022/07/22 04:12:39;;;;;;;12.90;7.55;;;;;;;14.61;100.00;101962.97;5240892;28;20472;-68
2022/07/22 04:15:10;;;;;;;13.43;7.50;;;;;;;14.66;100.00;101967.03;5236546;28;20025;-68
2022/07/22 04:17:41;;;;;;;13.82;7.25;;;;;;;14.66;100.00;101964.34;5246372;28;20029;-68
2022/07/22 04:20:13;;;;;;;15.00;7.68;;;;;;;14.70;100.00;101963.13;5243773;28;20036;-68
2022/07/22 04:22:44;;;;;;;20.60;8.32;;;;;;;14.81;100.00;101959.63;5243308;28;20028;-68
2022/07/22 04:25:16;;;;;;;16.63;8.15;;;;;;;14.81;100.00;101961.47;5241093;28;20481;-68
2022/07/22 04:27:47;;;;;;;17.25;8.10;;;;;;;14.79;100.00;101960.72;5233756;28;20498;-68
2022/07/22 04:30:18;;;;;;;17.02;7.93;;;;;;;14.83;100.00;101971.13;5233066;28;20021;-68
2022/07/22 04:32:49;;;;;;;15.70;8.10;;;;;;;14.84;100.00;101959.41;5232727;28;20039;-68
2022/07/22 04:35:21;;;;;;;19.35;7.60;;;;;;;14.89;100.00;101965.25;5234495;28;20403;-68
2022/07/22 04:37:52;;;;;;;14.98;8.30;;;;;;;14.88;100.00;101954.63;5239760;28;20032;-68
2022/07/22 04:40:23;;;;;;;15.73;8.00;;;;;;;14.85;100.00;101955.72;5235299;28;20034;-68
2022/07/22 04:42:55;;;;;;;16.17;7.63;;;;;;;14.85;100.00;101968.31;5232564;28;20017;-68
2022/07/22 04:45:26;;;;;;;12.93;7.40;;;;;;;14.86;100.00;101954.78;5234657;28;20171;-68
2022/07/22 04:47:57;;;;;;;14.43;7.85;;;;;;;14.95;100.00;101961.25;5238719;28;20095;-69
2022/07/22 04:50:28;;;;;;;15.85;7.90;;;;;;;14.93;100.00;101955.13;5236276;28;20025;-69
2022/07/22 04:53:00;;;;;;;13.75;8.23;;;;;;;14.87;100.00;101953.78;5246575;28;20546;-69
2022/07/22 04:55:31;;;;;;;15.32;8.45;;;;;;;14.90;100.00;101947.34;5239187;28;20124;-68
2022/07/22 04:58:03;;;;;;;13.93;7.88;;;;;;;14.92;100.00;101947.19;5237126;28;20037;-68
2022/07/22 05:00:34;;;;;;;18.55;8.73;;;;;;;14.98;100.00;101946.75;5230464;28;20033;-69
2022/07/22 05:03:06;;;;;;;17.05;8.95;;;;;;;15.01;100.00;101944.63;5226455;28;20038;-68
2022/07/22 05:05:37;;;;;;;16.13;8.73;;;;;;;15.24;100.00;101947.38;5225812;28;20176;-68
2022/07/22 05:08:08;;;;;;;11.98;8.18;;;;;;;15.10;100.00;101946.63;5234500;28;20025;-69
2022/07/22 05:10:39;;;;;;;14.57;8.77;;;;;;;15.15;100.00;101937.34;5229441;28;20029;-69
2022/07/22 05:13:12;;;;;;;16.60;8.65;;;;;;;15.17;100.00;101930.88;5228406;28;20036;-69
2022/07/22 05:15:44;;;;;;;16.90;8.57;;;;;;;15.15;100.00;101942.72;5230764;28;20029;-69
2022/07/22 05:18:16;;;;;;;17.70;9.25;;;;;;;15.18;100.00;101939.78;5230419;28;20029;-69
2022/07/22 05:20:47;;;;;;;18.60;9.43;;;;;;;15.22;100.00;101935.88;5230857;28;20061;-69
2022/07/22 05:23:18;;;;;;;17.23;9.15;;;;;;;15.26;100.00;101937.34;5233113;28;20067;-69
2022/07/22 05:25:50;;;;;;;15.55;8.98;;;;;;;15.38;100.00;101933.69;5238995;28;20078;-69
2022/07/22 05:28:21;;;;;;;15.27;9.35;;;;;;;15.39;100.00;101945.31;5237910;28;20494;-69
2022/07/22 05:30:52;;;;;;;16.17;8.90;;;;;;;15.43;100.00;101944.94;5231240;28;20052;-69
2022/07/22 05:33:23;;;;;;;17.27;9.15;;;;;;;15.51;100.00;101932.72;5233790;28;20536;-69
2022/07/22 05:35:55;;;;;;;15.00;8.00;;;;;;;15.44;100.00;101935.91;5238915;28;20437;-69
2022/07/22 05:38:26;;;;;;;16.92;8.70;;;;;;;15.49;100.00;101941.78;5230583;28;20478;-69
2022/07/22 05:40:57;;;;;;;14.15;8.40;;;;;;;15.60;100.00;101948.13;5235162;28;20029;-69
2022/07/22 05:43:29;;;;;;;18.73;8.63;;;;;;;15.60;100.00;101943.59;5232453;28;20033;-69
2022/07/22 05:46:00;;;;;;;14.32;8.02;;;;;;;15.71;100.00;101950.81;5237133;28;20021;-69
2022/07/22 05:48:31;;;;;;;13.43;7.40;;;;;;;15.78;100.00;101952.06;5239246;28;20418;-69
2022/07/22 05:51:03;;;;;;;16.38;8.57;;;;;;;15.83;100.00;101948.97;5244682;28;20803;-69
2022/07/22 05:53:34;;;;;;;15.85;8.05;;;;;;;15.77;100.00;101944.09;5238533;28;20025;-69
2022/07/22 05:56:06;;;;;;;13.30;8.30;;;;;;;15.80;100.00;101957.28;5238033;28;20162;-68
2022/07/22 05:58:41;;;;;;;16.27;8.77;;;;;;;16.00;100.00;101951.16;5237497;28;20033;-68
2022/07/22 06:01:14;;;;;;;16.65;8.63;;;;;;;15.99;100.00;101952.16;5239920;28;20563;-68
2022/07/22 06:03:45;;;;;;;13.50;7.70;;;;;;;16.04;100.00;101943.69;5239686;28;20135;-68
2022/07/22 06:06:16;;;;;;;16.63;8.20;;;;;;;16.11;100.00;101946.72;5239402;28;20049;-69
2022/07/22 06:08:48;;;;;;;12.85;7.47;;;;;;;16.17;100.00;101952.47;5242078;28;20537;-69
2022/07/22 06:11:19;;;;;;;12.65;6.90;;;;;;;16.35;100.00;101957.28;5248406;28;20078;-68
2022/07/22 06:13:50;;;;;;;16.60;6.93;;;;;;;16.31;100.00;101958.53;5242643;28;20025;-69
2022/07/22 06:16:22;;;;;;;14.35;7.40;;;;;;;16.51;100.00;101951.47;5239961;28;20457;-69
2022/07/22 06:18:53;;;;;;;11.82;7.35;;;;;;;16.62;100.00;101963.03;5244463;28;20115;-69
2022/07/22 06:21:24;;;;;;;14.77;7.63;;;;;;;16.87;100.00;101954.75;5242778;28;20032;-69
2022/07/22 06:23:56;;;;;;;14.48;6.30;;;;;;;16.94;100.00;101967.59;5240974;28;20086;-69
2022/07/22 06:26:27;;;;;;;11.35;6.60;;;;;;;17.14;100.00;101951.53;5250597;28;20040;-69
2022/07/22 06:28:58;;;;;;;10.88;5.25;;;;;;;17.02;100.00;101948.91;5251692;28;20033;-69
2022/07/22 06:31:29;;;;;;;10.68;5.90;;;;;;;17.02;100.00;101945.34;5245382;28;20052;-69
2022/07/22 06:34:05;;;;;;;10.68;5.47;;;;;;;16.95;100.00;101952.25;5238579;28;21675;-68
2022/07/22 06:36:36;;;;;;;11.40;4.53;;;;;;;16.97;100.00;101951.16;5253712;28;20129;-69
2022/07/22 06:39:08;;;;;;;11.52;5.15;;;;;;;16.94;100.00;101954.09;5243358;28;20542;-69
2022/07/22 06:41:39;;;;;;;9.98;4.28;;;;;;;17.04;100.00;101952.31;5251333;28;20029;-69
2022/07/22 06:44:10;;;;;;;10.20;3.90;;;;;;;17.08;100.00;101954.75;5253383;28;20036;-69
2022/07/22 06:46:42;;;;;;;9.50;4.20;;;;;;;17.22;100.00;101944.47;5249553;28;20037;-69
2022/07/22 06:49:13;;;;;;;8.90;4.85;;;;;;;17.21;100.00;101942.75;5237740;28;20496;-69
2022/07/22 06:51:44;;;;;;;13.55;5.55;;;;;;;17.44;100.00;101948.84;5249085;28;20474;-69
2022/07/22 06:54:16;;;;;;;9.30;4.47;;;;;;;17.49;100.00;101945.75;5245783;28;20025;-69
2022/07/22 06:56:47;;;;;;;10.60;5.00;;;;;;;17.66;100.00;101952.34;5258580;28;20385;-69
2022/07/22 06:59:18;;;;;;;10.23;3.40;;;;;;;17.59;100.00;101948.47;5248463;28;20040;-69
2022/07/22 07:01:50;;;;;;;6.82;3.22;;;;;;;17.69;99.47;101957.47;5239864;28;21129;-69
2022/07/22 07:04:21;;;;;;;9.02;3.10;;;;;;;17.83;100.00;101954.38;5244049;28;20036;-69
2022/07/22 07:06:53;;;;;;;6.15;2.78;;;;;;;17.92;100.00;101946.47;5239771;28;20131;-69
2022/07/22 07:09:24;;;;;;;4.68;1.58;;;;;;;18.08;93.15;101952.19;5245336;28;20733;-69
2022/07/22 07:11:55;;;;;;;5.65;1.42;;;;;;;18.13;100.00;101940.97;5245245;28;20050;-69
2022/07/22 07:14:26;;;;;;;3.92;1.33;;;;;;;18.37;88.04;101945.94;5249535;28;20433;-69
2022/07/22 07:16:58;;;;;;;5.38;2.42;;;;;;;18.35;91.70;101938.00;5239494;28;20033;-69
2022/07/22 07:19:29;;;;;;;7.07;2.15;;;;;;;18.47;87.96;101937.88;5244014;28;20021;-69
2022/07/22 07:22:00;;;;;;;5.20;2.30;;;;;;;18.63;89.35;101935.44;5239807;28;20037;-69
2022/07/22 07:24:31;;;;;;;7.60;3.22;;;;;;;18.53;86.89;101934.59;5244610;28;20036;-69
2022/07/22 07:27:03;;;;;;;6.47;2.95;;;;;;;18.76;92.52;101930.59;5242335;28;20033;-69
2022/07/22 07:29:34;;;;;;;7.25;2.90;;;;;;;18.93;92.44;101930.88;5243046;28;20028;-69
2022/07/22 07:32:05;;;;;;;4.97;2.13;;;;;;;19.15;86.85;101943.19;5242660;28;20399;-69
2022/07/22 07:34:38;;;;;;;4.55;1.70;;;;;;;19.17;81.28;101942.03;5246124;28;20029;-69
2022/07/22 07:37:09;;;;;;;4.63;1.80;;;;;;;19.24;88.04;101941.47;5247532;28;20112;-69
2022/07/22 07:39:41;;;;;;;3.97;1.70;;;;;;;19.50;81.64;101944.34;5252331;28;20797;-69
2022/07/22 07:42:12;;;;;;;5.30;1.85;;;;;;;19.24;74.72;101934.22;5248519;28;20479;-69
2022/07/22 07:44:43;;;;;;;3.92;1.02;;;;;;;19.28;77.02;101927.50;5240967;28;20396;-69
2022/07/22 07:47:17;;;;;;;4.05;1.08;;;;;;;19.29;78.79;101931.03;5243961;28;20079;-70
2022/07/22 07:49:49;;;;;;;4.80;1.10;;;;;;;19.19;75.58;101928.38;5259160;28;20036;-69
2022/07/22 07:52:20;;;;;;;3.83;1.30;;;;;;;19.13;79.04;101921.69;5241569;28;20403;-69
2022/07/22 07:54:52;;;;;;;4.55;1.38;;;;;;;19.11;80.31;101929.09;5241169;28;20029;-69
2022/07/22 07:57:24;;;;;;;7.32;2.45;;;;;;;18.95;80.07;101940.53;5247983;28;20386;-69
2022/07/22 07:59:55;;;;;;;5.22;2.05;;;;;;;18.82;80.35;101939.16;5251939;28;20029;-70
2022/07/22 08:02:26;;;;;;;5.40;2.10;;;;;;;18.84;84.98;101938.00;5246177;28;20169;-69
2022/07/22 08:04:57;;;;;;;4.80;1.90;;;;;;;18.85;84.46;101934.31;5252010;28;20025;-70
2022/07/22 08:07:29;;;;;;;4.30;2.03;;;;;;;18.73;81.91;101930.00;5244807;28;20028;-70
2022/07/22 08:10:00;;;;;;;5.88;2.10;;;;;;;18.74;80.64;101938.00;5246949;28;20024;-70
2022/07/22 08:12:31;;;;;;;5.38;1.92;;;;;;;18.53;80.58;101932.75;5247052;28;20067;-70
2022/07/22 08:15:03;;;;;;;4.35;1.67;;;;;;;18.51;86.19;101932.03;5239801;28;20033;-70
2022/07/22 08:17:34;;;;;;;5.47;1.73;;;;;;;18.34;81.77;101930.03;5249848;28;20032;-70
2022/07/22 08:20:06;;;;;;;5.10;1.77;;;;;;;18.54;82.41;101926.34;5251824;28;20025;-70
2022/07/22 08:22:38;;;;;;;5.05;2.00;;;;;;;18.47;82.50;101930.63;5249060;28;20025;-70
2022/07/22 08:25:10;;;;;;;4.22;1.60;;;;;;;18.47;80.75;101930.63;5251740;28;20056;-70
2022/07/22 08:27:41;;;;;;;3.88;1.60;;;;;;;18.52;82.68;101932.88;5246173;28;20535;-70
2022/07/22 08:30:12;;;;;;;5.22;2.03;;;;;;;18.71;81.14;101926.59;5240514;28;20032;-70
2022/07/22 08:32:44;;;;;;;4.30;1.70;;;;;;;18.97;81.16;101932.28;5241024;28;20167;-70
2022/07/22 08:35:15;;;;;;;4.00;1.60;;;;;;;18.99;76.49;101931.13;5248240;28;20130;-70
2022/07/22 08:37:47;;;;;;;5.15;1.75;;;;;;;19.43;77.82;101918.91;5236389;28;20029;-70
2022/07/22 08:40:19;;;;;;;4.72;1.50;;;;;;;19.65;76.04;101914.94;5241912;28;20028;-70
2022/07/22 08:42:51;;;;;;;3.60;1.50;;;;;;;19.50;73.92;101920.00;5243345;28;20025;-70
2022/07/22 08:45:22;;;;;;;4.00;1.50;;;;;;;19.44;73.98;101912.47;5250746;28;20029;-70
2022/07/22 08:47:53;;;;;;;7.18;1.98;;;;;;;19.29;74.68;101910.28;5247620;28;20029;-70
2022/07/22 08:50:25;;;;;;;6.88;1.40;;;;;;;19.31;74.21;101913.69;5254005;28;20036;-70
2022/07/22 08:52:57;;;;;;;4.20;1.90;;;;;;;19.21;77.10;101910.13;5247669;28;20472;-70
2022/07/22 08:55:28;;;;;;;4.72;1.73;;;;;;;19.26;75.43;101915.13;5253556;28;20517;-70
2022/07/22 08:57:59;;;;;;;5.72;1.65;;;;;;;19.29;76.76;101915.69;5245225;28;20037;-70
2022/07/22 09:00:30;;;;;;;5.38;1.90;;;;;;;19.15;75.37;101908.88;5249850;28;20024;-70
2022/07/22 09:03:20;;;;;;;5.40;2.22;;;;;;;19.33;76.70;101911.69;5250943;28;20133;-70
2022/07/22 09:05:52;;;;;;;4.18;1.85;;;;;;;19.31;80.92;101912.81;5252141;28;20036;-71
2022/07/22 09:08:25;;;;;;;4.65;1.77;;;;;;;19.52;75.25;101917.97;5242843;28;20372;-70
2022/07/22 09:10:56;;;;;;;4.40;1.60;;;;;;;19.63;73.23;101923.19;5250866;28;20537;-70
2022/07/22 09:13:27;;;;;;;6.90;2.05;;;;;;;19.64;71.86;101914.09;5246804;28;20042;-70
2022/07/22 09:15:58;;;;;;;5.68;2.45;;;;;;;19.76;74.85;101915.59;5244464;28;20606;-70
2022/07/22 09:18:48;;;;;;;4.38;1.55;;;;;;;19.73;76.71;101912.34;5251953;28;20078;-70
2022/07/22 09:21:21;;;;;;;5.00;1.70;;;;;;;19.87;75.23;101916.41;5246181;28;20570;-70
2022/07/22 09:23:52;;;;;;;3.22;1.85;;;;;;;19.73;73.33;101915.06;5251199;28;20029;-70
2022/07/22 09:26:35;;;;;;;3.95;1.63;;;;;;;19.80;75.97;101901.78;5248731;28;20086;-70
2022/07/22 09:29:06;;;;;;;5.47;2.08;;;;;;;19.85;77.96;101897.59;5247916;28;20025;-70
2022/07/22 09:31:38;;;;;;;4.45;2.17;;;;;;;20.00;74.33;101905.19;5239936;28;20047;-70
2022/07/22 09:34:25;;;;;;;4.15;2.00;;;;;;;20.15;74.93;101900.94;5244057;28;20033;-70
2022/07/22 09:36:59;;;;;;;4.70;1.90;;;;;;;20.03;70.05;101903.03;5233606;28;20033;-70
2022/07/22 09:39:32;;;;;;;5.07;2.40;;;;;;;20.11;75.78;101899.56;5244643;28;20516;-70
2022/07/22 09:42:06;;;;;;;3.95;1.92;;;;;;;20.17;71.87;101899.81;5239426;28;20052;-70
2022/07/22 09:44:37;;;;;;;4.18;1.70;;;;;;;20.29;72.76;101886.88;5254645;28;20025;-70
2022/07/22 09:47:27;;;;;;;4.32;2.05;;;;;;;20.15;73.86;101881.97;5243526;28;20388;-70
2022/07/22 09:49:59;;;;;;;4.55;1.98;;;;;;;20.30;71.05;101882.28;5253354;28;20463;-71
2022/07/22 09:52:30;;;;;;;5.55;2.10;;;;;;;20.57;71.43;101890.28;5252005;28;20491;-71
2022/07/22 09:55:02;;;;;;;4.63;2.40;;;;;;;20.62;72.73;101894.44;5250620;28;20040;-71
2022/07/22 09:57:33;;;;;;;5.03;2.00;;;;;;;20.59;68.79;101887.44;5239378;28;20488;-71
2022/07/22 10:00:09;;;;;;;4.22;1.88;;;;;;;20.93;71.54;101894.81;5244856;28;20036;-71
2022/07/22 10:02:58;;;;;;;4.70;1.80;;;;;;;21.39;70.79;101887.25;5253707;28;20056;-71
2022/07/22 10:05:31;;;;;;;6.32;1.80;;;;;;;21.38;65.22;101885.56;5239865;28;20037;-71
2022/07/22 10:08:05;;;;;;;3.83;1.65;;;;;;;21.68;65.13;101880.63;5253963;28;20025;-71
2022/07/22 10:10:41;;;;;;;4.82;1.98;;;;;;;21.73;67.83;101898.13;5241919;28;20029;-71
2022/07/22 10:13:12;;;;;;;6.88;2.15;;;;;;;21.94;65.68;101899.53;5258672;28;20479;-71
2022/07/22 10:15:44;;;;;;;5.53;2.22;;;;;;;22.21;64.78;101886.66;5253894;28;20079;-71
2022/07/22 10:18:18;;;;;;;4.18;1.88;;;;;;;22.08;64.44;101889.88;5248369;28;20036;-71
2022/07/22 10:21:04;;;;;;;7.60;2.63;;;;;;;21.90;64.16;101888.16;5255666;28;20033;-71
2022/07/22 10:23:35;;;;;;;5.82;2.50;;;;;;;22.23;67.24;101892.78;5255697;28;20025;-71
2022/07/22 10:26:07;;;;;;;3.80;2.10;;;;;;;21.60;62.09;101900.44;5238689;28;20049;-71
2022/07/22 10:28:38;;;;;;;4.20;2.40;;;;;;;21.77;64.06;101892.38;5245181;28;20021;-71
2022/07/22 10:31:24;;;;;;;4.95;2.50;;;;;;;21.86;65.45;101894.94;5244532;28;20032;-71
2022/07/22 10:33:56;;;;;;;6.20;2.00;;;;;;;21.96;65.23;101904.78;5253461;28;20436;-71
2022/07/22 10:36:36;;;;;;;4.30;2.17;;;;;;;21.61;62.66;101895.84;5248786;28;20115;-72
2022/07/22 10:39:13;;;;;;;6.03;2.60;;;;;;;21.46;63.28;101901.09;5250591;28;20029;-71
2022/07/22 10:41:45;;;;;;;5.43;2.50;;;;;;;21.32;63.23;101900.66;5253429;28;20028;-71
2022/07/22 10:44:46;;;;;;;5.07;2.63;;;;;;;21.50;66.82;101891.59;5244850;28;20029;-72
2022/07/22 10:47:56;;;;;;;4.63;3.00;;;;;;;21.50;66.08;101887.00;5251542;28;20116;-71
2022/07/22 10:50:39;;;;;;;5.93;2.50;;;;;;;21.56;66.38;101874.63;5246172;28;20379;-71
2022/07/22 10:53:15;;;;;;;5.40;2.80;;;;;;;21.51;63.23;101877.81;5242142;28;20357;-71
2022/07/22 10:56:08;;;;;;;5.18;2.83;;;;;;;21.66;66.02;101880.78;5241750;28;20033;-72
2022/07/22 10:58:40;;;;;;;5.47;3.13;;;;;;;21.43;62.48;101874.22;5251645;28;20028;-71
2022/07/22 11:01:15;;;;;;;6.10;2.63;;;;;;;21.39;62.78;101876.41;5240689;28;20037;-71
2022/07/22 11:03:48;;;;;;;7.60;2.78;;;;;;;21.60;62.13;101873.28;5251678;28;20090;-71
2022/07/22 11:06:24;;;;;;;4.73;3.00;;;;;;;21.63;62.17;101869.38;5240473;28;20036;-71
2022/07/22 11:09:10;;;;;;;7.18;3.05;;;;;;;21.84;67.22;101877.94;5245415;28;20302;-71
2022/07/22 11:11:45;;;;;;;5.07;2.88;;;;;;;21.88;66.69;101873.00;5241692;28;20059;-71
2022/07/22 11:14:31;;;;;;;7.25;2.88;;;;;;;21.97;63.30;101866.56;5240192;28;20482;-71
2022/07/22 11:17:11;;;;;;;7.63;4.07;;;;;;;21.84;61.49;101864.38;5244785;28;20083;-71
2022/07/22 11:19:44;;;;;;;6.75;3.55;;;;;;;21.78;64.04;101872.31;5245481;28;20379;-71
2022/07/22 11:22:16;;;;;;;7.80;4.75;;;;;;;21.42;60.74;101869.78;5252858;28;20029;-71
2022/07/22 11:24:49;;;;;;;5.45;3.35;;;;;;;21.91;61.98;101862.66;5253043;28;20060;-71
2022/07/22 11:27:23;;;;;;;5.72;3.10;;;;;;;21.84;62.34;101863.50;5251048;28;20025;-71
2022/07/22 11:29:56;;;;;;;5.47;3.45;;;;;;;21.81;61.62;101855.69;5234369;28;20033;-71
2022/07/22 11:32:31;;;;;;;8.57;3.67;;;;;;;22.41;60.31;101854.56;5252517;28;20045;-71
2022/07/22 11:35:02;;;;;;;5.35;3.25;;;;;;;22.29;59.24;101856.78;5252071;28;20030;-72
2022/07/22 11:37:34;;;;;;;7.10;3.35;;;;;;;22.19;58.73;101848.78;5248012;28;20033;-72
2022/07/22 11:40:08;;;;;;;7.25;3.55;;;;;;;22.27;59.71;101839.78;5264379;28;20118;-71